Time;durP1;ratioP1;P1;durP2;ratioP2;P2;SDS_P1;SDS_P2;PMS_P1;PMS_P2;Temp;Humidity;BMP_temperature;BMP_pressure;BME280_temperature;BME280_humidity;BME280_pressure;Samples;Min_cycle;Max_cycle;Signal;HPM_P1;HPM_P2
2023/05/18 00:01:58;;;;;;;8.50;8.20;;;;;;;11.44;100.00;92330.25;5058175;28;20205;-76
2023/05/18 00:04:24;;;;;;;9.40;8.90;;;;;;;11.46;100.00;92343.78;5071087;28;20194;-75
2023/05/18 00:06:55;;;;;;;8.50;8.20;;;;;;;11.69;100.00;92337.66;5070784;28;20182;-75
2023/05/18 00:09:25;;;;;;;7.63;7.33;;;;;;;11.47;100.00;92348.72;5071178;28;20211;-75
2023/05/18 00:11:53;;;;;;;8.37;8.07;;;;;;;11.58;100.00;92326.56;5070947;28;20195;-76
2023/05/18 00:14:19;;;;;;;8.37;8.07;;;;;;;11.30;100.00;92338.84;5058881;28;20261;-76
2023/05/18 00:16:44;;;;;;;7.73;7.53;;;;;;;11.26;100.00;92337.09;5052630;28;20231;-76
2023/05/18 00:19:13;;;;;;;7.47;7.27;;;;;;;11.27;100.00;92318.53;5075119;28;20187;-76
2023/05/18 00:21:40;;;;;;;9.10;8.80;;;;;;;11.00;100.00;92304.66;5059417;28;20287;-76
2023/05/18 00:24:06;;;;;;;9.27;8.97;;;;;;;11.30;100.00;92341.47;5070645;28;20192;-75
2023/05/18 00:26:32;;;;;;;7.57;7.27;;;;;;;11.25;100.00;92338.94;5070390;28;20312;-76
2023/05/18 00:28:57;;;;;;;9.37;8.83;;;;;;;11.26;100.00;92334.50;5070273;28;20253;-76
2023/05/18 00:31:22;;;;;;;7.70;7.50;;;;;;;11.23;100.00;92329.84;5056598;28;20285;-76
2023/05/18 00:33:48;;;;;;;9.47;9.17;;;;;;;11.46;100.00;92335.94;5069887;28;20189;-76
2023/05/18 00:36:13;;;;;;;8.67;8.37;;;;;;;11.28;100.00;92333.13;5070195;28;20225;-76
2023/05/18 00:38:38;;;;;;;8.50;8.20;;;;;;;11.11;100.00;92330.31;5052654;28;20887;-75
2023/05/18 00:41:04;;;;;;;9.10;8.80;;;;;;;11.47;100.00;92340.13;5070685;28;20261;-76
2023/05/18 00:43:29;;;;;;;8.93;8.63;;;;;;;11.22;100.00;92331.69;5069847;28;20232;-76
2023/05/18 00:45:55;;;;;;;9.43;8.83;;;;;;;11.33;100.00;92342.75;5069766;28;20225;-75
2023/05/18 00:48:20;;;;;;;9.37;9.07;;;;;;;11.52;100.00;92337.44;5052091;28;20178;-75
2023/05/18 00:50:46;;;;;;;8.60;8.30;;;;;;;11.29;100.00;92321.63;5070154;28;20213;-75
2023/05/18 00:53:11;;;;;;;9.30;9.00;;;;;;;10.94;100.00;92279.69;5069329;28;20185;-75
2023/05/18 00:55:37;;;;;;;7.87;7.67;;;;;;;11.46;100.00;92318.44;5070321;28;20966;-75
2023/05/18 00:58:04;;;;;;;8.73;8.43;;;;;;;11.54;100.00;92311.75;5070122;28;20792;-75
2023/05/18 01:00:30;;;;;;;8.63;8.33;;;;;;;11.52;100.00;92303.44;5062746;28;20248;-75
2023/05/18 01:02:56;;;;;;;8.67;8.37;;;;;;;11.80;100.00;92323.31;5069660;28;20206;-75
2023/05/18 01:05:22;;;;;;;8.53;8.23;;;;;;;11.75;100.00;92318.94;5069887;28;20854;-75
2023/05/18 01:07:49;;;;;;;8.33;8.03;;;;;;;11.73;100.00;92322.91;5069454;28;20190;-75
2023/05/18 01:10:17;;;;;;;8.20;7.47;;;;;;;11.74;100.00;92319.22;5070180;28;20236;-75
2023/05/18 01:12:47;;;;;;;8.30;8.00;;;;;;;11.82;100.00;92315.94;5069743;28;20194;-76
2023/05/18 01:15:18;;;;;;;7.73;7.53;;;;;;;11.86;100.00;92311.69;5069476;28;20251;-75
2023/05/18 01:18:08;;;;;;;8.20;7.93;;;;;;;11.89;100.00;92318.94;5069473;28;20170;-75
2023/05/18 01:20:48;;;;;;;7.67;7.47;;;;;;;11.69;100.00;92307.03;5069218;28;20251;-76
2023/05/18 01:23:47;;;;;;;8.07;7.77;;;;;;;11.70;100.00;92294.75;5067927;28;20223;-76
2023/05/18 01:26:28;;;;;;;9.10;8.80;;;;;;;11.98;100.00;92322.41;5068670;28;20253;-75
2023/05/18 01:28:56;;;;;;;9.27;8.97;;;;;;;11.91;100.00;92319.41;5063196;28;20197;-75
2023/05/18 01:31:22;;;;;;;7.87;7.53;;;;;;;12.02;100.00;92320.75;5068666;28;20217;-76
2023/05/18 01:33:47;;;;;;;8.57;8.27;;;;;;;12.02;100.00;92315.50;5051504;28;20248;-75
2023/05/18 01:36:13;;;;;;;9.13;8.63;;;;;;;12.26;100.00;92321.28;5069000;28;20236;-76
2023/05/18 01:38:39;;;;;;;8.63;8.33;;;;;;;12.15;100.00;92319.94;5069539;28;20275;-75
2023/05/18 01:41:13;;;;;;;9.40;9.10;;;;;;;12.03;100.00;92307.38;5069523;28;20242;-76
2023/05/18 01:44:05;;;;;;;7.93;7.73;;;;;;;12.23;100.00;92329.72;5069297;28;20298;-76
2023/05/18 01:46:53;;;;;;;8.60;8.10;;;;;;;11.96;100.00;92322.69;5060264;28;20226;-75
2023/05/18 01:49:49;;;;;;;8.47;8.17;;;;;;;11.54;100.00;92309.13;5059704;28;20220;-75
2023/05/18 01:52:19;;;;;;;10.03;9.63;;;;;;;11.69;100.00;92286.09;5083319;28;20218;-75
2023/05/18 01:54:49;;;;;;;8.23;7.93;;;;;;;11.91;100.00;92314.94;5067903;28;20243;-75
2023/05/18 01:57:15;;;;;;;8.63;8.33;;;;;;;12.07;100.00;92325.88;5070413;28;20662;-76
2023/05/18 01:59:41;;;;;;;8.17;7.87;;;;;;;11.88;100.00;92307.69;5058947;28;20281;-76
2023/05/18 02:02:07;;;;;;;8.43;7.73;;;;;;;11.97;100.00;92320.88;5055986;28;20216;-75
2023/05/18 02:04:34;;;;;;;8.07;7.80;;;;;;;12.02;100.00;92329.38;5073319;28;20184;-76
2023/05/18 02:06:59;;;;;;;8.73;8.43;;;;;;;12.02;100.00;92316.28;5073416;28;20215;-75
2023/05/18 02:09:25;;;;;;;9.60;8.67;;;;;;;12.14;100.00;92339.34;5072646;28;20200;-75
2023/05/18 02:11:50;;;;;;;9.00;8.60;;;;;;;12.17;100.00;92328.28;5055700;28;20444;-76
2023/05/18 02:14:16;;;;;;;8.80;8.50;;;;;;;12.13;100.00;92322.84;5073038;28;20208;-75
2023/05/18 02:16:46;;;;;;;8.90;8.60;;;;;;;12.12;100.00;92325.78;5073024;28;20225;-75
2023/05/18 02:19:13;;;;;;;8.60;8.30;;;;;;;12.11;100.00;92330.22;5073117;28;20183;-75
2023/05/18 02:21:40;;;;;;;9.10;8.70;;;;;;;11.98;100.00;92336.28;5072859;28;20221;-75
2023/05/18 02:24:06;;;;;;;8.87;8.57;;;;;;;12.01;100.00;92334.91;5072905;28;20193;-76
2023/05/18 02:26:31;;;;;;;8.93;8.63;;;;;;;12.08;100.00;92332.63;5072249;28;20225;-76
2023/05/18 02:28:57;;;;;;;9.53;9.17;;;;;;;12.04;100.00;92340.31;5072592;28;20195;-76
2023/05/18 02:31:22;;;;;;;8.80;8.50;;;;;;;11.81;100.00;92333.47;5072561;28;20237;-75
2023/05/18 02:33:48;;;;;;;9.70;9.13;;;;;;;11.97;100.00;92329.47;5073147;28;20277;-75
2023/05/18 02:36:13;;;;;;;8.70;8.40;;;;;;;12.00;100.00;92344.56;5072035;28;20285;-75
2023/05/18 02:38:41;;;;;;;8.20;7.90;;;;;;;12.08;100.00;92330.81;5073090;28;20187;-76
2023/05/18 02:41:07;;;;;;;8.13;7.93;;;;;;;12.12;100.00;92334.41;5071845;28;20244;-75
2023/05/18 02:43:33;;;;;;;8.67;8.27;;;;;;;12.11;100.00;92342.56;5072892;28;20276;-75
2023/05/18 02:45:58;;;;;;;8.80;8.50;;;;;;;12.30;100.00;92343.16;5072196;28;20228;-75
2023/05/18 02:48:23;;;;;;;7.43;7.13;;;;;;;11.79;100.00;92347.91;5072702;28;20191;-75
2023/05/18 02:50:49;;;;;;;8.90;8.50;;;;;;;11.89;100.00;92338.00;5072012;28;20235;-75
2023/05/18 02:53:14;;;;;;;8.03;7.53;;;;;;;12.06;100.00;92346.03;5072906;28;20251;-75
2023/05/18 02:55:40;;;;;;;8.33;8.07;;;;;;;11.96;100.00;92342.84;5071409;28;20230;-75
2023/05/18 02:58:06;;;;;;;9.20;8.90;;;;;;;12.13;100.00;92356.09;5054911;28;20193;-75
2023/05/18 03:00:32;;;;;;;8.13;7.83;;;;;;;12.06;100.00;92347.88;5071255;28;20221;-75
2023/05/18 03:02:59;;;;;;;8.70;8.40;;;;;;;12.12;100.00;92359.78;5072258;28;20304;-75
2023/05/18 03:05:25;;;;;;;8.30;8.00;;;;;;;12.15;100.00;92367.06;5071915;28;20985;-75
2023/05/18 03:07:51;;;;;;;9.20;8.90;;;;;;;12.03;100.00;92361.56;5072161;28;20181;-75
2023/05/18 03:10:20;;;;;;;9.83;9.43;;;;;;;12.00;100.00;92364.75;5071362;28;20225;-75
2023/05/18 03:12:46;;;;;;;8.97;8.67;;;;;;;12.20;100.00;92395.75;5071864;28;20208;-75
2023/05/18 03:15:12;;;;;;;9.20;8.90;;;;;;;12.22;100.00;92388.34;5053990;28;20266;-75
2023/05/18 03:17:40;;;;;;;8.93;8.63;;;;;;;12.03;100.00;92357.06;5072230;28;20208;-75
2023/05/18 03:20:06;;;;;;;8.17;7.87;;;;;;;12.23;100.00;92387.31;5071433;28;20288;-75
2023/05/18 03:22:32;;;;;;;9.00;8.70;;;;;;;12.14;100.00;92392.44;5072356;28;21265;-74
2023/05/18 03:24:57;;;;;;;9.80;9.40;;;;;;;12.17;100.00;92398.94;5071229;28;20233;-73
2023/05/18 03:27:26;;;;;;;8.53;8.23;;;;;;;12.26;100.00;92405.03;5071558;28;20193;-73
2023/05/18 03:29:52;;;;;;;9.10;8.70;;;;;;;12.14;100.00;92402.16;5070655;28;20233;-73
2023/05/18 03:32:18;;;;;;;9.70;9.30;;;;;;;11.97;100.00;92404.59;5071929;28;20239;-73
2023/05/18 03:34:46;;;;;;;8.37;8.07;;;;;;;11.75;100.00;92405.22;5071055;28;20281;-73
2023/05/18 03:37:12;;;;;;;9.57;9.17;;;;;;;11.53;100.00;92391.25;5071563;28;20196;-73
2023/05/18 03:39:38;;;;;;;10.10;9.60;;;;;;;12.01;100.00;92418.63;5071257;28;20190;-72
2023/05/18 03:42:04;;;;;;;8.27;7.97;;;;;;;12.05;100.00;92416.97;5053330;28;20229;-73
2023/05/18 03:44:30;;;;;;;9.83;9.43;;;;;;;12.15;100.00;92419.38;5070897;28;20204;-73
2023/05/18 03:46:55;;;;;;;8.53;8.23;;;;;;;12.07;100.00;92420.06;5071743;28;20189;-73
2023/05/18 03:49:21;;;;;;;8.37;8.07;;;;;;;12.12;100.00;92414.75;5053631;28;20189;-73
2023/05/18 03:51:46;;;;;;;8.73;8.33;;;;;;;12.08;100.00;92419.78;5071665;28;20225;-73
2023/05/18 03:54:12;;;;;;;9.10;8.77;;;;;;;11.55;100.00;92410.03;5071385;28;20283;-73
2023/05/18 03:56:37;;;;;;;7.90;7.57;;;;;;;11.91;100.00;92427.44;5070264;28;20229;-73
2023/05/18 03:59:03;;;;;;;9.00;8.70;;;;;;;11.94;100.00;92426.09;5071649;28;20191;-73
2023/05/18 04:01:31;;;;;;;8.60;8.30;;;;;;;12.03;100.00;92432.94;5071006;28;20218;-72
2023/05/18 04:03:58;;;;;;;8.60;8.27;;;;;;;12.10;100.00;92422.09;5071057;28;20224;-73
2023/05/18 04:06:24;;;;;;;8.27;7.97;;;;;;;12.05;100.00;92398.63;5070999;28;20232;-73
2023/05/18 04:08:53;;;;;;;8.80;8.43;;;;;;;12.29;100.00;92434.03;5051989;28;20166;-75
2023/05/18 04:11:20;;;;;;;9.50;8.87;;;;;;;12.37;100.00;92443.03;5070423;28;20221;-75
2023/05/18 04:13:46;;;;;;;9.17;8.67;;;;;;;12.34;100.00;92430.53;5071135;28;20735;-75
2023/05/18 04:16:12;;;;;;;11.17;10.47;;;;;;;12.25;100.00;92421.81;5052762;28;20217;-75
2023/05/18 04:18:39;;;;;;;10.47;9.87;;;;;;;12.10;100.00;92399.34;5071272;28;20766;-75
2023/05/18 04:21:05;;;;;;;10.90;10.27;;;;;;;12.10;100.00;92448.25;5069820;28;20271;-74
2023/05/18 04:23:32;;;;;;;11.63;11.03;;;;;;;12.00;100.00;92432.78;5071042;28;20213;-74
2023/05/18 04:25:58;;;;;;;11.43;10.73;;;;;;;12.25;100.00;92438.28;5069680;28;20232;-76
2023/05/18 04:28:24;;;;;;;11.27;10.37;;;;;;;12.09;100.00;92446.72;5067355;28;20198;-70
2023/05/18 04:30:50;;;;;;;11.30;10.53;;;;;;;11.83;100.00;92445.66;5068033;28;20232;-70
2023/05/18 04:33:16;;;;;;;11.37;10.67;;;;;;;12.18;100.00;92442.34;5069430;28;20195;-72
2023/05/18 04:35:43;;;;;;;11.47;10.87;;;;;;;12.30;100.00;92448.66;5068763;28;20248;-72
2023/05/18 04:38:09;;;;;;;12.13;11.37;;;;;;;12.16;100.00;92453.13;5069340;28;20253;-71
2023/05/18 04:40:36;;;;;;;13.40;12.40;;;;;;;12.27;100.00;92441.38;5068477;28;20247;-69
2023/05/18 04:43:02;;;;;;;12.20;11.20;;;;;;;12.42;100.00;92450.78;5069623;28;20212;-72
2023/05/18 04:45:28;;;;;;;13.10;12.20;;;;;;;12.24;100.00;92454.28;5066782;28;20228;-71
2023/05/18 04:47:54;;;;;;;13.07;12.27;;;;;;;12.58;100.00;92455.41;5068461;28;20189;-71
2023/05/18 04:50:22;;;;;;;12.00;11.17;;;;;;;12.27;100.00;92458.91;5069479;28;20251;-70
2023/05/18 04:52:49;;;;;;;12.57;11.43;;;;;;;12.55;100.00;92457.81;5069561;28;20232;-72
2023/05/18 04:55:21;;;;;;;11.77;11.07;;;;;;;12.71;100.00;92467.72;5065806;28;20238;-70
2023/05/18 04:57:47;;;;;;;11.90;11.20;;;;;;;12.65;100.00;92473.34;5068692;28;20185;-71
2023/05/18 05:00:13;;;;;;;11.13;10.43;;;;;;;12.47;100.00;92476.84;5068272;28;20228;-71
2023/05/18 05:02:38;;;;;;;11.43;10.83;;;;;;;12.50;100.00;92479.66;5068809;28;20223;-72
2023/05/18 05:05:04;;;;;;;10.87;10.27;;;;;;;12.72;100.00;92482.34;5068124;28;20228;-72
2023/05/18 05:07:30;;;;;;;10.80;10.10;;;;;;;12.71;100.00;92487.88;5069379;28;20178;-71
2023/05/18 05:09:55;;;;;;;11.03;10.40;;;;;;;12.20;100.00;92495.19;5057344;28;20224;-69
2023/05/18 05:12:20;;;;;;;10.73;10.13;;;;;;;11.93;100.00;92458.53;5069367;28;20224;-72
2023/05/18 05:14:46;;;;;;;10.30;9.80;;;;;;;12.14;100.00;92494.50;5058504;28;20230;-72
2023/05/18 05:17:11;;;;;;;9.93;9.43;;;;;;;12.33;100.00;92489.94;5043400;28;20185;-69
2023/05/18 05:19:37;;;;;;;13.43;12.73;;;;;;;12.60;100.00;92491.78;5068248;28;20196;-69
2023/05/18 05:22:02;;;;;;;10.83;9.90;;;;;;;12.72;100.00;92492.03;5068695;28;20205;-68
2023/05/18 05:24:27;;;;;;;11.13;10.63;;;;;;;12.47;100.00;92490.72;5063599;28;20193;-69
2023/05/18 05:26:53;;;;;;;8.97;8.67;;;;;;;12.45;100.00;92499.94;5049726;28;20173;-70
2023/05/18 05:29:19;;;;;;;8.83;8.20;;;;;;;12.54;100.00;92498.19;5068443;28;20197;-69
2023/05/18 05:31:44;;;;;;;9.63;9.13;;;;;;;12.60;100.00;92500.41;5066731;28;20243;-70
2023/05/18 05:34:10;;;;;;;9.20;8.80;;;;;;;12.63;100.00;92512.91;5068797;28;20473;-70
2023/05/18 05:36:36;;;;;;;8.63;8.23;;;;;;;12.78;100.00;92509.97;5068486;28;20297;-70
2023/05/18 05:39:02;;;;;;;9.47;9.07;;;;;;;12.40;100.00;92500.81;5069142;28;21113;-69
2023/05/18 05:41:27;;;;;;;10.83;9.70;;;;;;;12.76;100.00;92519.97;5067974;28;20228;-69
2023/05/18 05:43:52;;;;;;;9.53;9.03;;;;;;;12.53;100.00;92520.19;5068188;28;20213;-69
2023/05/18 05:46:18;;;;;;;9.90;9.30;;;;;;;12.26;100.00;92499.25;5067533;28;20225;-70
2023/05/18 05:48:43;;;;;;;7.93;7.63;;;;;;;12.68;100.00;92517.28;5068108;28;20192;-69
2023/05/18 05:51:09;;;;;;;8.03;7.73;;;;;;;12.66;100.00;92514.16;5066868;28;20221;-70
2023/05/18 05:53:34;;;;;;;8.57;8.27;;;;;;;12.70;100.00;92525.63;5068072;28;20230;-70
2023/05/18 05:56:00;;;;;;;9.00;8.70;;;;;;;12.46;100.00;92525.84;5067662;28;20332;-69
2023/05/18 05:58:25;;;;;;;8.00;7.70;;;;;;;12.06;100.00;92504.88;5068363;28;20201;-70
2023/05/18 06:00:51;;;;;;;8.70;8.40;;;;;;;11.96;100.00;92518.91;5068060;28;20822;-70
2023/05/18 06:03:16;;;;;;;9.03;8.73;;;;;;;11.87;100.00;92509.41;5068371;28;20316;-70
2023/05/18 06:05:41;;;;;;;11.97;11.17;;;;;;;11.71;100.00;92477.50;5067116;28;20237;-69
2023/05/18 06:08:08;;;;;;;11.07;10.37;;;;;;;11.81;100.00;92513.16;5067881;28;20207;-69
2023/05/18 06:10:33;;;;;;;11.27;10.53;;;;;;;11.99;100.00;92517.53;5067832;28;20221;-69
2023/05/18 06:12:58;;;;;;;10.93;10.33;;;;;;;12.16;100.00;92521.16;5068891;28;20203;-69
2023/05/18 06:15:24;;;;;;;10.43;9.93;;;;;;;12.26;100.00;92525.44;5067557;28;20293;-70
2023/05/18 06:17:49;;;;;;;10.00;9.50;;;;;;;12.50;100.00;92526.00;5068253;28;20189;-70
2023/05/18 06:20:15;;;;;;;10.83;10.23;;;;;;;12.49;100.00;92534.94;5066888;28;20209;-72
2023/05/18 06:22:40;;;;;;;11.20;10.40;;;;;;;12.55;100.00;92529.31;5050329;28;20209;-71
2023/05/18 06:25:07;;;;;;;10.87;10.27;;;;;;;12.74;100.00;92542.31;5058000;28;21037;-69
2023/05/18 06:27:32;;;;;;;10.47;9.87;;;;;;;12.86;100.00;92534.72;5068676;28;20178;-69
2023/05/18 06:29:57;;;;;;;9.00;8.50;;;;;;;12.46;100.00;92540.75;5067474;28;20261;-70
2023/05/18 06:32:23;;;;;;;9.17;8.77;;;;;;;12.19;100.00;92541.50;5068623;28;20257;-71
2023/05/18 06:34:49;;;;;;;9.60;9.00;;;;;;;12.25;100.00;92529.13;5066684;28;20225;-69
2023/05/18 06:37:16;;;;;;;9.30;8.90;;;;;;;12.37;100.00;92537.28;5067410;28;20189;-69
2023/05/18 06:39:41;;;;;;;10.20;9.60;;;;;;;12.18;100.00;92544.41;5066004;28;20253;-74
2023/05/18 06:42:07;;;;;;;10.37;9.77;;;;;;;12.24;100.00;92548.50;5055034;28;20223;-71
2023/05/18 06:44:34;;;;;;;10.30;9.47;;;;;;;12.68;100.00;92561.81;5070185;28;20183;-71
2023/05/18 06:46:59;;;;;;;10.60;10.00;;;;;;;12.79;100.00;92560.53;5072441;28;20292;-69
2023/05/18 06:49:25;;;;;;;10.43;9.93;;;;;;;12.50;100.00;92567.91;5069448;28;20185;-69
2023/05/18 06:51:50;;;;;;;11.30;10.70;;;;;;;12.77;100.00;92552.97;5070755;28;20186;-70
2023/05/18 06:54:16;;;;;;;10.47;10.00;;;;;;;12.95;100.00;92561.75;5071930;28;20193;-73
2023/05/18 06:56:42;;;;;;;9.43;8.93;;;;;;;12.99;100.00;92570.59;5071229;28;20263;-68
2023/05/18 06:59:07;;;;;;;11.10;10.50;;;;;;;13.15;100.00;92564.03;5071117;28;20200;-67
2023/05/18 07:01:33;;;;;;;10.17;9.67;;;;;;;13.10;100.00;92581.69;5070972;28;20277;-69
2023/05/18 07:03:58;;;;;;;10.10;9.57;;;;;;;12.98;100.00;92591.88;5070992;28;20221;-68
2023/05/18 07:06:24;;;;;;;10.13;9.63;;;;;;;13.00;100.00;92585.28;5066441;28;20222;-68
2023/05/18 07:08:49;;;;;;;10.83;10.23;;;;;;;12.73;100.00;92591.28;5069285;28;20253;-67
2023/05/18 07:11:15;;;;;;;10.93;10.33;;;;;;;12.38;100.00;92586.72;5071141;28;20259;-68
2023/05/18 07:13:40;;;;;;;11.67;10.97;;;;;;;12.79;100.00;92594.59;5053590;28;20407;-68
2023/05/18 07:16:05;;;;;;;11.63;10.73;;;;;;;12.36;100.00;92598.53;5070636;28;20228;-67
2023/05/18 07:18:32;;;;;;;11.07;10.37;;;;;;;12.45;100.00;92584.47;5071034;28;20185;-68
2023/05/18 07:20:58;;;;;;;11.30;10.37;;;;;;;12.37;100.00;92603.47;5070548;28;20220;-69
2023/05/18 07:23:23;;;;;;;12.03;11.33;;;;;;;12.59;100.00;92603.59;5071096;28;20248;-68
2023/05/18 07:25:49;;;;;;;11.67;10.87;;;;;;;12.69;100.00;92607.88;5070545;28;20220;-68
2023/05/18 07:28:14;;;;;;;13.03;12.20;;;;;;;12.60;100.00;92613.03;5071136;28;20193;-68
2023/05/18 07:30:40;;;;;;;12.37;11.57;;;;;;;12.32;100.00;92603.59;5070569;28;20237;-68
2023/05/18 07:33:05;;;;;;;12.03;11.27;;;;;;;12.49;100.00;92613.50;5070810;28;20206;-68
2023/05/18 07:35:31;;;;;;;12.03;11.33;;;;;;;12.37;100.00;92611.31;5070435;28;20237;-68
2023/05/18 07:37:56;;;;;;;13.17;12.20;;;;;;;12.52;100.00;92623.38;5070697;28;20221;-70
2023/05/18 07:40:22;;;;;;;13.27;12.27;;;;;;;12.54;100.00;92623.88;5070195;28;20232;-71
2023/05/18 07:42:47;;;;;;;14.00;12.90;;;;;;;12.24;100.00;92627.81;5070975;28;20217;-71
2023/05/18 07:45:12;;;;;;;14.67;13.47;;;;;;;12.55;100.00;92634.06;5052562;28;20221;-69
2023/05/18 07:47:38;;;;;;;15.47;13.93;;;;;;;12.54;100.00;92631.72;5070296;28;20189;-68
2023/05/18 07:50:05;;;;;;;15.40;14.07;;;;;;;12.53;100.00;92645.88;5068103;28;20259;-71
2023/05/18 07:52:30;;;;;;;18.30;14.27;;;;;;;12.21;100.00;92630.22;5070212;28;20208;-68
2023/05/18 07:54:56;;;;;;;14.70;13.50;;;;;;;12.09;100.00;92641.16;5050844;28;20221;-71
2023/05/18 07:57:23;;;;;;;17.40;15.60;;;;;;;12.26;100.00;92645.84;5070328;28;20220;-71
2023/05/18 07:59:48;;;;;;;17.23;15.47;;;;;;;12.10;100.00;92647.94;5070106;28;20237;-71
2023/05/18 08:02:15;;;;;;;16.33;14.73;;;;;;;12.08;100.00;92649.25;5052648;28;20209;-71
2023/05/18 08:04:41;;;;;;;17.03;15.53;;;;;;;12.34;100.00;92660.88;5069053;28;20290;-71
2023/05/18 08:07:07;;;;;;;17.63;15.83;;;;;;;12.21;100.00;92664.22;5070605;28;20185;-70
2023/05/18 08:09:33;;;;;;;20.30;16.77;;;;;;;12.18;100.00;92664.81;5069696;28;20182;-70
2023/05/18 08:11:58;;;;;;;17.80;16.30;;;;;;;12.22;100.00;92666.56;5070423;28;20185;-70
2023/05/18 08:14:24;;;;;;;17.93;16.30;;;;;;;12.35;100.00;92670.28;5069976;28;20223;-71
2023/05/18 08:16:49;;;;;;;17.87;16.17;;;;;;;12.33;100.00;92667.97;5069743;28;20190;-70
2023/05/18 08:19:15;;;;;;;18.60;16.60;;;;;;;12.36;100.00;92677.06;5065789;28;20178;-71
2023/05/18 08:21:40;;;;;;;17.43;15.87;;;;;;;12.44;100.00;92669.34;5069571;28;20221;-70
2023/05/18 08:24:08;;;;;;;19.10;17.27;;;;;;;12.48;100.00;92680.78;5069864;28;20213;-71
2023/05/18 08:26:34;;;;;;;18.83;16.93;;;;;;;12.48;100.00;92677.41;5069456;28;20290;-71
2023/05/18 08:28:59;;;;;;;19.23;17.43;;;;;;;12.57;100.00;92686.16;5070306;28;20197;-70
2023/05/18 08:31:24;;;;;;;17.87;16.20;;;;;;;12.70;100.00;92694.03;5051864;28;20216;-69
2023/05/18 08:33:50;;;;;;;19.60;17.33;;;;;;;12.59;100.00;92682.16;5070413;28;20277;-69
2023/05/18 08:36:16;;;;;;;18.27;16.47;;;;;;;12.53;100.00;92698.25;5070223;28;20221;-68
2023/05/18 08:38:41;;;;;;;17.53;15.87;;;;;;;12.59;100.00;92694.50;5070840;28;20194;-69
2023/05/18 08:41:06;;;;;;;17.07;15.53;;;;;;;12.29;100.00;92703.63;5069982;28;21122;-70
2023/05/18 08:43:36;;;;;;;18.63;16.97;;;;;;;12.15;100.00;92708.03;5066494;28;20213;-68
2023/05/18 08:46:22;;;;;;;16.97;15.40;;;;;;;11.83;100.00;92715.81;5069401;28;20255;-69
2023/05/18 08:48:52;;;;;;;17.67;15.93;;;;;;;12.14;100.00;92710.94;5070270;28;20232;-68
2023/05/18 08:51:20;;;;;;;18.20;16.40;;;;;;;12.32;100.00;92703.06;5066289;28;20241;-71
2023/05/18 08:53:52;;;;;;;19.20;17.40;;;;;;;12.54;100.00;92715.53;5070028;28;20174;-71
2023/05/18 08:56:21;;;;;;;20.07;18.00;;;;;;;12.62;100.00;92720.13;5069586;28;20276;-72
2023/05/18 08:58:49;;;;;;;19.30;17.20;;;;;;;12.68;100.00;92718.97;5069797;28;20189;-71
2023/05/18 09:01:15;;;;;;;18.27;16.40;;;;;;;12.80;100.00;92735.00;5069816;28;20221;-71
2023/05/18 09:03:41;;;;;;;17.83;16.33;;;;;;;12.61;100.00;92739.50;5069732;28;20236;-71
2023/05/18 09:06:06;;;;;;;16.97;15.47;;;;;;;12.05;100.00;92733.56;5046620;28;21710;-73
2023/05/18 09:08:32;;;;;;;17.00;15.43;;;;;;;12.03;100.00;92740.94;5069954;28;20256;-71
2023/05/18 09:11:01;;;;;;;17.10;15.50;;;;;;;11.64;100.00;92743.81;5069629;28;20247;-70
2023/05/18 09:13:28;;;;;;;17.70;16.13;;;;;;;11.61;100.00;92744.31;5070400;28;20187;-70
2023/05/18 09:15:53;;;;;;;17.93;16.13;;;;;;;11.98;100.00;92746.25;5082096;28;20226;-68
2023/05/18 09:18:19;;;;;;;16.87;15.17;;;;;;;12.06;100.00;92732.53;5089139;28;20198;-69
2023/05/18 09:20:44;;;;;;;16.77;15.43;;;;;;;12.08;100.00;92751.31;5088330;28;20281;-70
2023/05/18 09:23:11;;;;;;;16.27;15.00;;;;;;;11.94;100.00;92755.72;5088922;28;20217;-71
2023/05/18 09:25:42;;;;;;;16.23;14.67;;;;;;;12.11;100.00;92751.53;5089136;28;20222;-69
2023/05/18 09:28:07;;;;;;;16.63;14.93;;;;;;;12.20;100.00;92733.34;5072103;28;20189;-70
2023/05/18 09:30:39;;;;;;;17.23;15.50;;;;;;;12.26;100.00;92755.78;5088974;28;20235;-69
2023/05/18 09:33:04;;;;;;;15.83;14.67;;;;;;;12.41;100.00;92756.31;5089828;28;20169;-69
2023/05/18 09:35:30;;;;;;;16.50;15.00;;;;;;;12.01;100.00;92738.59;5089115;28;20234;-69
2023/05/18 09:37:56;;;;;;;17.23;15.83;;;;;;;12.23;100.00;92735.41;5088302;28;20192;-69
2023/05/18 09:40:28;;;;;;;16.30;14.93;;;;;;;12.45;100.00;92759.16;5091309;28;20209;-70
2023/05/18 09:42:54;;;;;;;16.57;14.10;;;;;;;12.31;100.00;92755.72;5089427;28;20757;-71
2023/05/18 09:45:25;;;;;;;15.33;13.83;;;;;;;12.43;100.00;92769.13;5082912;28;20252;-70
2023/05/18 09:47:52;;;;;;;16.27;14.87;;;;;;;12.61;100.00;92758.63;5089029;28;20185;-71
2023/05/18 09:50:22;;;;;;;17.43;13.97;;;;;;;12.41;100.00;92766.78;5093036;28;20226;-70
2023/05/18 09:52:48;;;;;;;14.63;13.43;;;;;;;12.12;100.00;92765.41;5088328;28;20207;-69
2023/05/18 09:55:18;;;;;;;16.20;14.80;;;;;;;11.86;100.00;92767.56;5088851;28;20239;-68
2023/05/18 09:57:45;;;;;;;16.50;15.07;;;;;;;12.22;100.00;92752.16;5090290;28;20177;-68
2023/05/18 10:00:12;;;;;;;16.87;15.17;;;;;;;11.84;100.00;92772.34;5088776;28;20220;-70
2023/05/18 10:02:47;;;;;;;15.93;14.60;;;;;;;12.11;100.00;92748.16;5088537;28;20208;-70
2023/05/18 10:05:22;;;;;;;15.80;14.33;;;;;;;12.16;100.00;92766.38;5082647;28;20211;-69
2023/05/18 10:07:49;;;;;;;16.20;14.80;;;;;;;12.57;100.00;92768.13;5078364;28;20177;-70
2023/05/18 10:10:19;;;;;;;16.97;15.47;;;;;;;12.21;100.00;92776.78;5088919;28;20330;-71
2023/05/18 10:12:45;;;;;;;16.80;15.20;;;;;;;12.72;100.00;92772.31;5090097;28;20180;-75
2023/05/18 10:15:15;;;;;;;16.10;14.70;;;;;;;12.84;100.00;92778.66;5088861;28;20220;-73
2023/05/18 10:17:42;;;;;;;15.60;14.13;;;;;;;12.81;100.00;92775.84;5071752;28;20188;-72
2023/05/18 10:20:08;;;;;;;16.10;14.60;;;;;;;12.17;100.00;92767.97;5091674;28;20223;-73
2023/05/18 10:22:35;;;;;;;15.60;13.83;;;;;;;12.73;100.00;92777.28;5093648;28;20234;-73
2023/05/18 10:25:03;;;;;;;17.07;15.47;;;;;;;12.56;100.00;92768.41;5092685;28;20225;-73
2023/05/18 10:27:29;;;;;;;16.20;14.73;;;;;;;12.64;100.00;92784.22;5093030;28;20192;-73
2023/05/18 10:29:57;;;;;;;16.77;15.47;;;;;;;12.94;100.00;92782.97;5091453;28;20220;-73
2023/05/18 10:32:24;;;;;;;16.93;15.23;;;;;;;12.70;100.00;92777.84;5091867;28;20284;-73
2023/05/18 10:34:51;;;;;;;16.13;14.83;;;;;;;12.77;100.00;92793.19;5090935;28;20293;-73
2023/05/18 10:37:20;;;;;;;17.07;15.33;;;;;;;12.74;100.00;92793.78;5091769;28;20184;-72
2023/05/18 10:39:49;;;;;;;16.00;14.70;;;;;;;12.36;100.00;92787.03;5091254;28;20914;-73
2023/05/18 10:42:16;;;;;;;15.77;14.40;;;;;;;12.82;100.00;92790.50;5107646;28;20208;-73
2023/05/18 10:44:43;;;;;;;15.23;14.03;;;;;;;13.10;100.00;92791.38;5091925;28;20224;-73
2023/05/18 10:47:10;;;;;;;16.13;14.47;;;;;;;13.16;100.00;92798.88;5090783;28;20188;-73
2023/05/18 10:49:36;;;;;;;16.57;15.07;;;;;;;13.02;100.00;92795.44;5092298;28;20200;-73
2023/05/18 10:52:02;;;;;;;15.50;14.03;;;;;;;13.16;100.00;92798.88;5113953;28;20173;-73
2023/05/18 10:54:29;;;;;;;14.57;13.37;;;;;;;13.34;100.00;92802.50;5092328;28;20322;-73
2023/05/18 10:56:54;;;;;;;15.57;14.17;;;;;;;12.94;100.00;92793.44;5092834;28;20213;-73
2023/05/18 10:59:22;;;;;;;17.07;15.47;;;;;;;12.92;100.00;92775.38;5093008;28;20177;-72
2023/05/18 11:01:49;;;;;;;16.47;15.03;;;;;;;12.74;100.00;92809.50;5091679;28;20227;-73
2023/05/18 11:04:15;;;;;;;15.73;14.37;;;;;;;12.94;100.00;92811.78;5092075;28;20199;-73
2023/05/18 11:06:41;;;;;;;16.03;14.43;;;;;;;13.10;100.00;92823.63;5074491;28;20217;-73
2023/05/18 11:09:07;;;;;;;17.27;15.73;;;;;;;13.01;100.00;92822.72;5080668;28;20189;-73
2023/05/18 11:11:51;;;;;;;15.87;14.20;;;;;;;13.27;100.00;92821.22;5091905;28;20225;-73
2023/05/18 11:14:25;;;;;;;16.30;15.03;;;;;;;13.44;100.00;92825.88;5082756;28;20193;-73
2023/05/18 11:16:51;;;;;;;15.03;13.77;;;;;;;13.15;100.00;92820.91;5090757;28;20263;-73